createdAt,value
2022-12-17T00:02:20.515Z,22.90
2022-12-17T00:05:05.624Z,20.27
2022-12-17T00:07:52.034Z,20.98
2022-12-17T00:10:37.210Z,18.05
2022-12-17T00:13:22.638Z,21.08
2022-12-17T00:16:09.836Z,19.80
2022-12-17T00:18:55.360Z,20.85
2022-12-17T00:21:41.732Z,19.95
2022-12-17T00:24:28.296Z,20.30
2022-12-17T00:27:13.626Z,19.55
2022-12-17T00:29:55.286Z,18.95
2022-12-17T00:32:40.870Z,19.50
2022-12-17T00:35:26.603Z,19.40
2022-12-17T00:38:11.960Z,20.15
2022-12-17T00:40:58.720Z,19.08
2022-12-17T00:43:43.938Z,20.08
2022-12-17T00:46:29.378Z,20.38
2022-12-17T00:49:14.652Z,20.33
2022-12-17T00:52:00.034Z,19.15
2022-12-17T00:54:45.178Z,22.40
2022-12-17T00:57:40.180Z,21.13
2022-12-17T01:00:27.086Z,20.40
2022-12-17T01:03:12.540Z,19.58
2022-12-17T01:05:57.971Z,22.38
2022-12-17T01:08:43.367Z,21.15
2022-12-17T01:11:43.068Z,20.27
2022-12-17T01:14:29.630Z,21.63
2022-12-17T01:17:14.778Z,22.48
2022-12-17T01:20:00.119Z,21.40
2022-12-17T01:22:45.381Z,18.98
2022-12-17T01:25:30.789Z,21.83
2022-12-17T01:28:15.977Z,21.20
2022-12-17T01:31:02.718Z,21.60
2022-12-17T01:33:48.009Z,22.13
2022-12-17T01:36:33.329Z,21.25
2022-12-17T01:39:18.697Z,22.30
2022-12-17T01:42:03.631Z,21.65
2022-12-17T01:45:12.667Z,23.50
2022-12-17T01:48:02.213Z,22.23
2022-12-17T01:50:49.912Z,20.58
2022-12-17T01:53:38.319Z,22.80
2022-12-17T01:56:25.464Z,22.15
2022-12-17T01:59:11.343Z,22.27
2022-12-17T02:01:56.948Z,21.45
2022-12-17T02:04:44.009Z,21.83
2022-12-17T02:07:39.346Z,21.92
2022-12-17T02:10:34.873Z,21.40
2022-12-17T02:13:26.788Z,21.48
2022-12-17T02:16:13.890Z,20.25
2022-12-17T02:19:02.795Z,21.20
2022-12-17T02:21:50.029Z,22.08
2022-12-17T02:24:41.895Z,20.92
2022-12-17T02:27:28.925Z,20.33
2022-12-17T02:30:16.730Z,20.15
2022-12-17T02:33:03.401Z,21.88
2022-12-17T02:35:51.826Z,19.55
2022-12-17T02:38:39.201Z,21.90
2022-12-17T02:41:24.773Z,20.88
2022-12-17T02:44:12.007Z,21.55
2022-12-17T02:46:57.758Z,20.88
2022-12-17T02:49:43.075Z,22.77
2022-12-17T02:52:34.564Z,22.30
2022-12-17T02:55:20.333Z,20.75
2022-12-17T02:58:05.319Z,21.05
2022-12-17T03:00:51.855Z,21.90
2022-12-17T03:03:50.416Z,21.40
2022-12-17T03:06:35.971Z,20.90
2022-12-17T03:09:21.359Z,20.90
2022-12-17T03:12:06.600Z,22.35
2022-12-17T03:14:51.964Z,20.85
2022-12-17T03:17:38.347Z,24.13
2022-12-17T03:20:24.242Z,21.48
2022-12-17T03:23:09.459Z,22.00
2022-12-17T03:25:54.677Z,22.27
2022-12-17T03:28:40.098Z,21.42
2022-12-17T03:31:25.299Z,22.45
2022-12-17T03:34:12.327Z,20.73
2022-12-17T03:36:57.682Z,23.45
2022-12-17T03:39:42.831Z,20.83
2022-12-17T03:42:28.203Z,21.20
2022-12-17T03:45:13.197Z,24.58
2022-12-17T03:47:58.634Z,22.77
2022-12-17T03:50:45.512Z,23.67
2022-12-17T03:53:30.647Z,20.70
2022-12-17T03:56:15.909Z,22.17
2022-12-17T03:59:01.270Z,23.25
2022-12-17T04:01:46.766Z,22.90
2022-12-17T04:04:32.166Z,23.15
2022-12-17T04:07:18.791Z,22.60
2022-12-17T04:10:04.060Z,21.35
2022-12-17T04:12:57.691Z,22.05
2022-12-17T04:15:43.040Z,22.02
2022-12-17T04:18:28.314Z,21.83
2022-12-17T04:21:13.576Z,21.75
2022-12-17T04:24:00.134Z,20.70
2022-12-17T04:26:45.436Z,20.90
2022-12-17T04:29:30.811Z,21.85
2022-12-17T04:32:31.121Z,21.92
2022-12-17T04:35:30.324Z,21.23
2022-12-17T04:38:15.469Z,20.83
2022-12-17T04:41:01.923Z,21.85
2022-12-17T04:43:47.149Z,21.60
2022-12-17T04:46:32.627Z,21.65
2022-12-17T04:49:17.563Z,23.23
2022-12-17T04:52:02.680Z,22.17
2022-12-17T04:54:47.687Z,23.48
2022-12-17T04:57:34.355Z,22.48
2022-12-17T05:00:19.862Z,21.55
2022-12-17T05:03:05.044Z,23.15
2022-12-17T05:05:50.345Z,23.08
2022-12-17T05:08:41.069Z,22.60
2022-12-17T05:11:26.942Z,22.13
2022-12-17T05:14:13.625Z,21.83
2022-12-17T05:16:59.012Z,22.65
2022-12-17T05:19:49.343Z,22.45
2022-12-17T05:22:34.567Z,23.88
2022-12-17T05:25:19.860Z,23.25
2022-12-17T05:28:05.099Z,23.75
2022-12-17T05:30:51.640Z,22.27
2022-12-17T05:33:37.288Z,21.20
2022-12-17T05:36:22.733Z,22.15
2022-12-17T05:39:08.274Z,22.60
2022-12-17T05:41:53.674Z,21.25
2022-12-17T05:44:42.657Z,21.75
2022-12-17T05:47:28.945Z,23.00
2022-12-17T05:50:14.357Z,23.27
2022-12-17T05:52:59.782Z,22.23
2022-12-17T05:55:45.089Z,21.65
2022-12-17T05:58:30.584Z,21.50
2022-12-17T06:01:25.169Z,23.67
2022-12-17T06:04:11.661Z,21.33
2022-12-17T06:06:56.930Z,22.77
2022-12-17T06:09:42.276Z,22.90
2022-12-17T06:12:27.412Z,24.90
2022-12-17T06:15:18.118Z,24.42
2022-12-17T06:18:15.079Z,25.42
2022-12-17T06:21:03.754Z,22.38
2022-12-17T06:23:49.117Z,23.98
2022-12-17T06:26:34.402Z,24.95
2022-12-17T06:29:19.479Z,23.75
2022-12-17T06:32:04.848Z,22.95
2022-12-17T06:34:50.055Z,21.25
2022-12-17T06:37:36.708Z,22.30
2022-12-17T06:40:22.555Z,23.50
2022-12-17T06:43:11.864Z,24.02
2022-12-17T06:45:57.115Z,22.85
2022-12-17T06:48:42.590Z,22.08
2022-12-17T06:51:27.550Z,21.58
2022-12-17T06:54:13.960Z,21.60
2022-12-17T06:56:59.313Z,23.25
2022-12-17T06:59:56.312Z,21.35
2022-12-17T07:02:41.476Z,23.85
2022-12-17T07:05:26.806Z,22.17
2022-12-17T07:08:15.744Z,22.15
2022-12-17T07:11:02.151Z,22.75
2022-12-17T07:13:47.426Z,22.65
2022-12-17T07:16:32.985Z,21.80
2022-12-17T07:19:21.393Z,24.13
2022-12-17T07:22:09.239Z,23.52
2022-12-17T07:24:54.917Z,21.92
2022-12-17T07:27:41.859Z,21.63
2022-12-17T07:30:27.776Z,22.08
2022-12-17T07:33:17.347Z,21.67
2022-12-17T07:36:02.714Z,19.63
2022-12-17T07:38:47.852Z,21.13
2022-12-17T07:41:32.907Z,19.80
2022-12-17T07:44:19.237Z,21.30
2022-12-17T07:47:04.641Z,21.98
2022-12-17T07:49:50.117Z,21.48
2022-12-17T07:52:35.097Z,23.60
2022-12-17T07:55:20.432Z,24.65
2022-12-17T07:58:05.753Z,26.67
2022-12-17T08:00:52.318Z,24.90
2022-12-17T08:03:38.468Z,23.95
2022-12-17T08:06:24.399Z,24.88
2022-12-17T08:09:09.825Z,26.02
2022-12-17T08:11:54.952Z,23.50
2022-12-17T08:14:40.082Z,25.10
2022-12-17T08:17:26.781Z,24.88
2022-12-17T08:20:12.243Z,24.83
2022-12-17T08:22:57.288Z,24.83
2022-12-17T08:25:42.619Z,32.17
2022-12-17T08:28:49.465Z,31.75
2022-12-17T08:31:33.284Z,26.77
2022-12-17T08:34:20.016Z,26.33
2022-12-17T08:37:05.533Z,26.52
2022-12-17T08:39:50.531Z,25.05
2022-12-17T08:42:35.803Z,25.15
2022-12-17T08:45:21.042Z,26.15
2022-12-17T08:48:06.250Z,25.88
2022-12-17T08:50:52.875Z,25.02
2022-12-17T08:53:38.322Z,25.65
2022-12-17T08:56:24.939Z,25.45
2022-12-17T08:59:09.953Z,26.58
2022-12-17T09:01:55.319Z,26.30
2022-12-17T09:04:40.489Z,26.55
2022-12-17T09:07:26.964Z,26.33
2022-12-17T09:10:12.274Z,27.65
2022-12-17T09:13:02.674Z,27.17
2022-12-17T09:18:37.424Z,24.58
2022-12-17T09:21:22.896Z,22.15
2022-12-17T09:24:09.754Z,19.30
2022-12-17T09:26:54.803Z,21.35
2022-12-17T09:29:39.798Z,21.90
2022-12-17T09:32:25.227Z,21.52
2022-12-17T09:35:10.287Z,20.90
2022-12-17T09:37:55.620Z,20.90
2022-12-17T09:40:43.291Z,22.27
2022-12-17T09:43:40.557Z,18.98
2022-12-17T09:46:31.007Z,21.38
2022-12-17T09:49:20.630Z,21.75
2022-12-17T09:52:05.699Z,20.73
2022-12-17T09:54:57.717Z,20.02
2022-12-17T09:57:51.170Z,19.50
2022-12-17T10:00:39.087Z,21.25
2022-12-17T10:03:29.534Z,19.77
2022-12-17T10:06:22.261Z,21.25
2022-12-17T10:09:11.587Z,21.02
2022-12-17T10:11:56.681Z,20.60
2022-12-17T10:14:44.685Z,20.15
2022-12-17T10:17:33.156Z,20.67
2022-12-17T10:20:18.639Z,21.90
2022-12-17T10:23:05.479Z,21.10
2022-12-17T10:25:50.921Z,20.10
2022-12-17T10:28:37.769Z,20.10
2022-12-17T10:31:28.851Z,21.25
2022-12-17T10:34:15.317Z,21.30
2022-12-17T10:37:04.331Z,22.45
2022-12-17T10:39:49.636Z,23.90
2022-12-17T10:42:42.938Z,22.92
2022-12-17T10:45:42.541Z,25.73
2022-12-17T10:48:43.097Z,24.40
2022-12-17T10:51:38.161Z,22.30
2022-12-17T10:54:28.343Z,22.40
2022-12-17T10:57:16.657Z,21.13
2022-12-17T11:00:02.019Z,22.30
2022-12-17T11:02:48.966Z,22.85
2022-12-17T11:05:42.636Z,22.05
2022-12-17T11:08:28.849Z,22.77
2022-12-17T11:11:14.266Z,22.23
2022-12-17T11:13:58.459Z,23.70
2022-12-17T11:16:45.145Z,22.58
2022-12-17T11:19:47.826Z,26.25
2022-12-17T11:22:42.719Z,24.05
2022-12-17T11:25:41.556Z,24.98
2022-12-17T11:28:33.721Z,25.30
2022-12-17T11:31:26.062Z,23.90
2022-12-17T11:37:02.778Z,25.50
2022-12-17T11:39:55.012Z,24.15
2022-12-17T11:42:44.634Z,26.08
2022-12-17T11:45:37.435Z,27.45
2022-12-17T11:48:28.587Z,25.38
2022-12-17T11:51:13.242Z,25.27
2022-12-17T11:54:06.320Z,23.55
2022-12-17T11:56:57.272Z,24.08
2022-12-17T11:59:50.984Z,24.42
2022-12-17T12:02:51.984Z,22.38
2022-12-17T12:05:44.072Z,22.25
2022-12-17T12:08:36.469Z,23.13
2022-12-17T12:11:32.582Z,25.05
2022-12-17T12:14:26.088Z,24.63
2022-12-17T12:17:16.835Z,25.38
2022-12-17T12:20:07.196Z,27.08
2022-12-17T12:22:58.515Z,26.60
2022-12-17T12:25:51.868Z,24.58
2022-12-17T12:28:46.761Z,25.10
2022-12-17T12:31:43.350Z,24.20
2022-12-17T12:34:32.036Z,24.60
2022-12-17T12:37:20.179Z,23.70
2022-12-17T12:40:10.068Z,23.88
2022-12-17T12:43:02.581Z,22.50
2022-12-17T12:46:00.320Z,23.08
2022-12-17T12:48:57.975Z,21.48
2022-12-17T12:51:46.038Z,22.83
2022-12-17T12:54:43.783Z,22.38
2022-12-17T13:16:54.511Z,24.60
2022-12-17T13:24:11.322Z,26.23
2022-12-17T13:26:47.676Z,26.40
2022-12-17T13:29:24.192Z,23.83
2022-12-17T13:32:17.778Z,24.27
2022-12-17T13:34:55.754Z,22.65
2022-12-17T13:37:31.736Z,24.67
2022-12-17T13:40:05.637Z,23.35
2022-12-17T13:42:36.013Z,22.05
2022-12-17T13:45:03.981Z,22.75
2022-12-17T13:47:34.561Z,22.48
2022-12-17T13:50:32.936Z,24.05
2022-12-17T13:52:51.461Z,24.27
2022-12-17T13:55:21.108Z,25.08
2022-12-17T13:57:49.927Z,23.88
2022-12-17T14:00:22.992Z,24.50
2022-12-17T14:02:52.612Z,23.55
2022-12-17T14:05:26.628Z,21.50
2022-12-17T14:07:54.988Z,23.42
2022-12-17T14:10:22.713Z,21.65
2022-12-17T14:12:50.134Z,22.73
2022-12-17T14:15:25.569Z,24.10
2022-12-17T14:17:55.422Z,22.80
2022-12-17T14:20:24.657Z,23.27
2022-12-17T14:22:54.203Z,21.98
2022-12-17T14:25:23.942Z,22.00
2022-12-17T14:27:55.288Z,25.55
2022-12-17T14:30:25.247Z,24.65
2022-12-17T14:32:54.330Z,24.50
2022-12-17T14:35:27.058Z,23.40
2022-12-17T14:37:54.769Z,23.20
2022-12-17T14:40:23.447Z,27.08
2022-12-17T14:42:51.357Z,29.42
2022-12-17T14:45:24.644Z,24.52
2022-12-17T14:47:57.903Z,24.55
2022-12-17T14:50:28.950Z,24.13
2022-12-17T14:52:57.917Z,24.80
2022-12-17T14:55:36.751Z,25.25
2022-12-17T14:58:19.099Z,28.33
2022-12-17T15:00:49.024Z,23.00
2022-12-17T15:03:26.651Z,22.52
2022-12-17T15:05:58.241Z,22.63
2022-12-17T15:08:26.241Z,21.13
2022-12-17T15:10:54.287Z,21.95
2022-12-17T15:13:21.993Z,22.15
2022-12-17T15:15:49.670Z,22.27
2022-12-17T15:18:17.435Z,22.05
2022-12-17T15:20:46.480Z,23.45
2022-12-17T15:23:17.040Z,23.67
2022-12-17T15:25:47.091Z,21.85
2022-12-17T15:28:16.987Z,21.02
2022-12-17T15:30:44.852Z,22.63
2022-12-17T15:33:13.070Z,20.73
2022-12-17T15:35:41.282Z,21.42
2022-12-17T15:38:11.403Z,19.48
2022-12-17T15:40:39.205Z,20.10
2022-12-17T15:43:11.635Z,23.10
2022-12-17T15:45:41.247Z,22.55
2022-12-17T15:48:09.199Z,20.38
2022-12-17T15:50:37.111Z,19.52
2022-12-17T15:53:05.023Z,20.75
2022-12-17T15:55:34.103Z,19.35
2022-12-17T15:58:01.847Z,16.63
2022-12-17T16:00:29.664Z,16.95
2022-12-17T16:02:57.503Z,18.02
2022-12-17T16:05:25.573Z,18.95
2022-12-17T16:07:53.489Z,16.77
2022-12-17T16:10:21.165Z,18.58
2022-12-17T16:12:50.309Z,16.92
2022-12-17T16:15:18.413Z,17.77
2022-12-17T16:17:46.268Z,18.40
2022-12-17T16:20:13.984Z,19.90
2022-12-17T16:22:41.706Z,18.90
2022-12-17T16:25:10.187Z,19.10
2022-12-17T16:27:37.996Z,21.95
2022-12-17T16:30:08.462Z,20.05
2022-12-17T16:32:36.913Z,20.80
2022-12-17T16:35:05.891Z,23.65
2022-12-17T16:37:33.833Z,23.00
2022-12-17T16:40:01.744Z,27.50
2022-12-17T16:42:29.481Z,26.63
2022-12-17T16:44:57.216Z,23.02
2022-12-17T16:47:27.022Z,25.75
2022-12-17T16:49:54.846Z,24.17
2022-12-17T16:52:22.952Z,25.92
2022-12-17T16:54:51.035Z,24.65
2022-12-17T16:57:18.838Z,24.85
2022-12-17T16:59:46.972Z,21.20
2022-12-17T17:02:16.264Z,22.85
2022-12-17T17:04:45.494Z,23.42
2022-12-17T17:07:13.161Z,22.98
2022-12-17T17:09:40.904Z,25.70
2022-12-17T17:12:09.174Z,24.98
2022-12-17T17:14:37.098Z,25.63
2022-12-17T17:17:05.377Z,24.10
2022-12-17T17:19:33.289Z,23.70
2022-12-17T17:22:03.004Z,25.67
2022-12-17T17:24:31.240Z,26.02
2022-12-17T17:26:59.438Z,26.42
2022-12-17T17:29:27.914Z,26.27
2022-12-17T17:32:13.978Z,24.77
2022-12-17T17:34:42.808Z,23.35
2022-12-17T17:37:13.754Z,23.30
2022-12-17T17:39:42.168Z,22.70
2022-12-17T17:42:10.302Z,23.25
2022-12-17T17:44:38.793Z,23.63
2022-12-17T17:47:07.745Z,22.17
2022-12-17T17:49:35.890Z,21.92
2022-12-17T17:52:12.280Z,23.98
2022-12-17T17:54:42.359Z,21.52
2022-12-17T17:57:10.910Z,23.20
2022-12-17T17:59:40.345Z,22.23
2022-12-17T18:02:09.047Z,22.45
2022-12-17T18:04:37.381Z,25.05
2022-12-17T18:09:55.186Z,22.27
2022-12-17T18:12:41.376Z,21.30
2022-12-17T18:15:14.733Z,21.77
2022-12-17T18:17:43.757Z,19.95
2022-12-17T18:20:12.465Z,20.73
2022-12-17T18:22:40.394Z,20.63
2022-12-17T18:25:10.690Z,19.60
2022-12-17T18:27:38.773Z,18.15
2022-12-17T18:30:07.681Z,20.05
2022-12-17T18:32:35.745Z,20.23
2022-12-17T18:35:03.788Z,20.10
2022-12-17T18:37:31.863Z,21.02
2022-12-17T18:39:59.927Z,21.05
2022-12-17T18:42:47.092Z,19.08
2022-12-17T18:45:15.044Z,21.48
2022-12-17T18:47:44.701Z,18.33
2022-12-17T18:50:13.386Z,26.58
2022-12-17T18:52:41.319Z,20.35
2022-12-17T18:55:12.659Z,19.80
2022-12-17T18:57:42.047Z,19.88
2022-12-17T19:00:11.554Z,22.88
2022-12-17T19:02:40.179Z,20.30
2022-12-17T19:05:09.374Z,18.13
2022-12-17T19:07:37.319Z,19.17
2022-12-17T19:10:06.106Z,25.88
2022-12-17T19:12:33.994Z,20.63
2022-12-17T19:15:03.364Z,19.58
2022-12-17T19:17:31.235Z,24.30
2022-12-17T19:19:59.147Z,25.02
2022-12-17T19:22:27.250Z,21.27
2022-12-17T19:25:04.470Z,18.42
2022-12-17T19:27:32.319Z,20.10
2022-12-17T19:30:00.083Z,18.23
2022-12-17T19:32:29.198Z,19.20
2022-12-17T19:34:56.819Z,18.25
2022-12-17T19:37:24.563Z,18.45
2022-12-17T19:39:52.324Z,19.95
2022-12-17T19:42:25.841Z,20.17
2022-12-17T19:44:54.874Z,18.38
2022-12-17T19:47:23.523Z,20.08
2022-12-17T19:49:52.558Z,20.40
2022-12-17T19:52:20.284Z,20.25
2022-12-17T19:54:47.899Z,20.63
2022-12-17T19:57:15.577Z,19.80
2022-12-17T19:59:43.246Z,19.83
2022-12-17T20:02:11.251Z,18.90
2022-12-17T20:04:39.215Z,21.00
2022-12-17T20:07:08.261Z,19.70
2022-12-17T20:09:35.906Z,19.98
2022-12-17T20:12:03.844Z,23.17
2022-12-17T20:14:32.630Z,25.13
2022-12-17T20:17:01.276Z,22.35
2022-12-17T20:19:31.230Z,22.25
2022-12-17T20:21:59.993Z,20.73
2022-12-17T20:24:31.823Z,20.30
2022-12-17T20:27:00.860Z,22.13
2022-12-17T20:29:28.875Z,21.23
2022-12-17T20:31:57.199Z,22.55
2022-12-17T20:34:25.626Z,21.75
2022-12-17T20:36:54.116Z,22.45
2022-12-17T20:39:27.144Z,21.92
2022-12-17T20:41:57.432Z,23.48
2022-12-17T20:44:25.252Z,22.17
2022-12-17T20:46:53.103Z,23.80
2022-12-17T20:49:20.967Z,25.13
2022-12-17T20:51:48.666Z,24.60
2022-12-17T20:54:16.616Z,22.52
2022-12-17T20:56:44.492Z,22.75
2022-12-17T20:59:16.660Z,24.20
2022-12-17T21:01:44.986Z,23.60
2022-12-17T21:04:13.288Z,24.50
2022-12-17T21:06:42.363Z,25.73
2022-12-17T21:09:10.274Z,25.17
2022-12-17T21:11:39.332Z,24.00
2022-12-17T21:14:11.942Z,23.55
2022-12-17T21:16:41.613Z,22.75
2022-12-17T21:19:10.435Z,23.98
2022-12-17T21:21:39.006Z,23.27
2022-12-17T21:24:08.160Z,21.85
2022-12-17T21:26:37.269Z,24.55
2022-12-17T21:29:06.353Z,22.58
2022-12-17T21:31:36.333Z,22.92
2022-12-17T21:34:06.706Z,23.90
2022-12-17T21:36:35.200Z,23.90
2022-12-17T21:39:08.677Z,21.33
2022-12-17T21:41:38.378Z,22.42
2022-12-17T21:44:08.586Z,24.02
2022-12-17T21:46:36.306Z,22.17
2022-12-17T21:49:05.848Z,23.95
2022-12-17T21:51:33.716Z,22.55
2022-12-17T21:54:08.389Z,22.20
2022-12-17T21:56:36.820Z,24.00
2022-12-17T21:59:05.080Z,23.00
2022-12-17T22:01:34.567Z,22.88
2022-12-17T22:04:05.639Z,23.63
2022-12-17T22:06:46.758Z,22.97
2022-12-17T22:09:37.779Z,22.35
2022-12-17T22:12:27.573Z,24.05
2022-12-17T22:14:55.227Z,22.42
2022-12-17T22:17:23.466Z,24.33
2022-12-17T22:19:52.487Z,20.33
2022-12-17T22:22:20.144Z,22.17
2022-12-17T22:24:47.832Z,20.70
2022-12-17T22:27:16.679Z,21.98
2022-12-17T22:30:01.788Z,22.65
2022-12-17T22:32:58.572Z,23.60
2022-12-17T22:36:30.758Z,19.15
2022-12-17T22:40:44.822Z,24.80
2022-12-17T22:44:33.955Z,22.50
2022-12-17T22:44:44.343Z,23.77
2022-12-17T22:46:42.259Z,22.92
2022-12-17T22:49:10.291Z,21.98
2022-12-17T22:51:40.969Z,22.08
2022-12-17T22:57:07.641Z,23.08
2022-12-17T22:59:26.571Z,22.25
2022-12-17T23:01:54.326Z,23.17
2022-12-17T23:04:22.154Z,23.20
2022-12-17T23:06:51.252Z,20.05
2022-12-17T23:09:20.197Z,21.67
2022-12-17T23:11:48.513Z,22.13
2022-12-17T23:14:17.029Z,23.35
2022-12-17T23:16:44.908Z,22.55
2022-12-17T23:19:16.075Z,22.75
2022-12-17T23:21:43.850Z,22.58
2022-12-17T23:24:12.911Z,23.10
2022-12-17T23:26:40.876Z,22.77
2022-12-17T23:29:13.585Z,22.25
2022-12-17T23:31:43.909Z,22.02
2022-12-17T23:34:11.590Z,23.17
2022-12-17T23:36:39.240Z,22.30
2022-12-17T23:39:07.270Z,23.40
2022-12-17T23:41:36.400Z,24.45
2022-12-17T23:44:04.055Z,23.55
2022-12-17T23:46:31.866Z,21.25
2022-12-17T23:49:00.184Z,24.30
2022-12-17T23:51:28.162Z,24.60
2022-12-17T23:53:55.933Z,26.05
2022-12-17T23:56:26.115Z,26.67
2022-12-17T23:58:56.586Z,23.45
